createdAt,value
2017-09-15T00:01:11.669Z,0.85
2017-09-15T00:03:39.993Z,1.00
2017-09-15T00:06:07.532Z,0.90
2017-09-15T00:08:35.080Z,0.77
2017-09-15T00:11:03.497Z,0.90
2017-09-15T00:13:31.024Z,1.02
2017-09-15T00:15:59.340Z,0.80
2017-09-15T00:18:26.874Z,1.15
2017-09-15T00:20:54.419Z,1.00
2017-09-15T00:23:22.716Z,0.82
2017-09-15T00:25:50.240Z,1.00
2017-09-15T00:28:18.561Z,1.30
2017-09-15T00:30:46.099Z,0.90
2017-09-15T00:33:14.412Z,0.80
2017-09-15T00:35:41.945Z,1.00
2017-09-15T00:38:09.484Z,0.85
2017-09-15T00:40:37.779Z,0.90
2017-09-15T00:43:05.314Z,0.93
2017-09-15T00:45:33.631Z,0.75
2017-09-15T00:48:01.178Z,0.98
2017-09-15T00:50:28.699Z,0.80
2017-09-15T00:52:56.256Z,0.80
2017-09-15T00:55:23.836Z,0.95
2017-09-15T00:57:52.160Z,0.80
2017-09-15T01:00:19.706Z,1.00
2017-09-15T01:02:47.249Z,0.95
2017-09-15T01:05:14.797Z,0.95
2017-09-15T01:07:43.131Z,1.02
2017-09-15T01:10:10.676Z,0.80
2017-09-15T01:12:38.233Z,0.90
2017-09-15T01:15:05.761Z,1.27
2017-09-15T01:17:33.310Z,0.80
2017-09-15T01:20:01.609Z,0.88
2017-09-15T01:22:29.157Z,0.82
2017-09-15T01:24:56.690Z,0.88
2017-09-15T01:27:25.015Z,0.90
2017-09-15T01:29:52.568Z,1.00
2017-09-15T01:32:20.103Z,0.90
2017-09-15T01:34:48.429Z,0.98
2017-09-15T01:37:15.953Z,0.82
2017-09-15T01:39:43.516Z,0.95
2017-09-15T01:42:11.046Z,0.90
2017-09-15T01:44:38.570Z,1.17
2017-09-15T01:47:06.125Z,0.80
2017-09-15T01:49:33.660Z,1.00
2017-09-15T01:52:01.205Z,1.00
2017-09-15T01:54:29.496Z,0.90
2017-09-15T01:56:57.057Z,0.90
2017-09-15T01:59:24.809Z,0.80
2017-09-15T02:01:53.124Z,1.00
2017-09-15T02:04:20.686Z,0.98
2017-09-15T02:06:48.234Z,0.80
2017-09-15T02:09:16.576Z,1.00
2017-09-15T02:11:44.106Z,0.90
2017-09-15T02:14:11.628Z,0.90
2017-09-15T02:16:39.941Z,0.90
2017-09-15T02:19:07.478Z,1.10
2017-09-15T02:21:35.061Z,0.90
2017-09-15T02:24:02.582Z,0.90
2017-09-15T02:26:31.005Z,1.05
2017-09-15T02:28:58.588Z,1.00
2017-09-15T02:31:26.120Z,0.98
2017-09-15T02:33:53.674Z,0.98
2017-09-15T02:36:21.213Z,0.98
2017-09-15T02:38:48.757Z,0.90
2017-09-15T02:41:17.057Z,1.00
2017-09-15T02:43:44.954Z,1.27
2017-09-15T02:46:12.472Z,0.80
2017-09-15T02:48:40.883Z,1.00
2017-09-15T02:51:08.440Z,0.90
2017-09-15T02:53:35.957Z,1.40
2017-09-15T02:56:04.266Z,1.12
2017-09-15T02:58:31.784Z,1.05
2017-09-15T03:00:59.317Z,1.00
2017-09-15T03:03:26.858Z,0.98
2017-09-15T03:05:54.426Z,0.90
2017-09-15T03:08:21.970Z,1.20
2017-09-15T03:10:49.494Z,1.00
2017-09-15T03:13:17.036Z,1.10
2017-09-15T03:15:44.568Z,1.10
2017-09-15T03:18:12.101Z,1.37
2017-09-15T03:20:40.406Z,1.10
2017-09-15T03:23:07.955Z,1.90
2017-09-15T03:25:36.247Z,1.00
2017-09-15T03:28:03.797Z,0.98
2017-09-15T03:30:31.336Z,1.30
2017-09-15T03:32:59.631Z,1.30
2017-09-15T03:35:27.177Z,1.10
2017-09-15T03:37:55.523Z,1.45
2017-09-15T03:40:23.071Z,1.15
2017-09-15T03:42:50.613Z,1.20
2017-09-15T03:45:18.197Z,1.73
2017-09-15T03:47:45.735Z,1.20
2017-09-15T03:50:13.253Z,1.33
2017-09-15T03:52:41.578Z,1.45
2017-09-15T03:55:09.119Z,1.10
2017-09-15T03:57:36.713Z,1.10
2017-09-15T04:00:04.240Z,1.00
2017-09-15T04:02:31.821Z,1.12
2017-09-15T04:04:59.362Z,1.02
2017-09-15T04:07:26.895Z,1.35
2017-09-15T04:09:55.234Z,1.30
2017-09-15T04:12:22.776Z,1.15
2017-09-15T04:14:50.326Z,1.20
2017-09-15T04:17:17.861Z,1.27
2017-09-15T04:19:45.417Z,1.30
2017-09-15T04:22:13.828Z,1.23
2017-09-15T04:24:41.404Z,1.30
2017-09-15T04:27:08.933Z,1.30
2017-09-15T04:29:36.517Z,1.10
2017-09-15T04:32:04.062Z,1.15
2017-09-15T04:34:31.653Z,1.08
2017-09-15T04:36:59.170Z,1.10
2017-09-15T04:39:26.693Z,1.23
2017-09-15T04:41:55.007Z,1.42
2017-09-15T04:44:23.339Z,1.20
2017-09-15T04:46:51.513Z,1.20
2017-09-15T04:49:20.304Z,1.12
2017-09-15T04:51:47.849Z,1.10
2017-09-15T04:54:15.380Z,1.50
2017-09-15T04:56:42.921Z,0.90
2017-09-15T04:59:10.450Z,1.00
2017-09-15T05:01:38.749Z,1.30
2017-09-15T05:04:07.077Z,1.20
2017-09-15T05:06:34.596Z,1.00
2017-09-15T05:09:02.138Z,1.62
2017-09-15T05:11:30.429Z,1.20
2017-09-15T05:13:57.989Z,1.30
2017-09-15T05:16:25.532Z,1.20
2017-09-15T05:18:53.949Z,1.40
2017-09-15T05:21:21.507Z,1.42
2017-09-15T05:23:49.029Z,1.40
2017-09-15T05:26:17.333Z,1.70
2017-09-15T05:28:44.856Z,1.25
2017-09-15T05:31:13.157Z,1.05
2017-09-15T05:33:40.720Z,1.00
2017-09-15T05:36:08.282Z,1.30
2017-09-15T05:38:36.769Z,1.45
2017-09-15T05:41:04.326Z,1.10
2017-09-15T05:43:31.866Z,1.10
2017-09-15T05:45:59.406Z,1.20
2017-09-15T05:48:28.465Z,1.20
2017-09-15T05:50:56.002Z,1.20
2017-09-15T05:53:23.549Z,1.20
2017-09-15T05:55:51.834Z,1.17
2017-09-15T05:58:19.373Z,1.30
2017-09-15T06:00:47.698Z,1.23
2017-09-15T06:03:16.038Z,1.42
2017-09-15T06:05:43.573Z,1.20
2017-09-15T06:08:11.889Z,1.10
2017-09-15T06:10:39.413Z,1.27
2017-09-15T06:13:06.970Z,1.20
2017-09-15T06:15:34.506Z,0.98
2017-09-15T06:18:02.073Z,1.10
2017-09-15T06:20:29.626Z,1.10
2017-09-15T06:22:57.530Z,1.70
2017-09-15T06:25:25.817Z,1.05
2017-09-15T06:27:54.142Z,1.15
2017-09-15T06:30:21.786Z,0.95
2017-09-15T06:32:49.329Z,1.30
2017-09-15T06:35:16.852Z,0.93
2017-09-15T06:37:44.402Z,1.10
2017-09-15T06:40:11.945Z,1.00
2017-09-15T06:42:39.517Z,1.10
2017-09-15T06:45:07.056Z,1.08
2017-09-15T06:47:34.580Z,0.98
2017-09-15T06:50:02.197Z,0.80
2017-09-15T06:52:29.719Z,0.90
2017-09-15T06:54:57.273Z,0.90
2017-09-15T06:57:24.996Z,1.00
2017-09-15T06:59:53.329Z,1.00
2017-09-15T07:02:20.849Z,1.00
2017-09-15T07:04:49.173Z,1.10
2017-09-15T07:07:16.820Z,1.20
2017-09-15T07:09:44.362Z,1.20
2017-09-15T07:12:12.048Z,0.98
2017-09-15T07:14:39.588Z,0.90
2017-09-15T07:17:07.739Z,0.93
2017-09-15T07:19:36.039Z,1.10
2017-09-15T07:22:03.580Z,1.00
2017-09-15T07:24:31.921Z,0.90
2017-09-15T07:26:59.446Z,1.00
2017-09-15T07:29:27.009Z,0.70
2017-09-15T07:31:54.545Z,0.80
2017-09-15T07:34:22.114Z,0.90
2017-09-15T07:36:49.651Z,0.82
2017-09-15T07:39:17.948Z,0.82
2017-09-15T07:41:45.513Z,0.90
2017-09-15T07:44:13.070Z,0.77
2017-09-15T07:46:40.644Z,1.10
2017-09-15T07:49:08.189Z,0.80
2017-09-15T07:51:38.890Z,1.00
2017-09-15T07:54:07.211Z,0.77
2017-09-15T07:56:34.770Z,0.80
2017-09-15T07:59:02.361Z,0.90
2017-09-15T08:01:29.901Z,0.60
2017-09-15T08:03:57.452Z,0.83
2017-09-15T08:06:24.994Z,0.60
2017-09-15T08:08:52.558Z,0.70
2017-09-15T08:11:20.086Z,0.83
2017-09-15T08:13:47.630Z,0.70
2017-09-15T08:16:16.690Z,0.90
2017-09-15T08:18:44.267Z,0.70
2017-09-15T08:21:12.167Z,0.80
2017-09-15T08:23:39.692Z,0.80
2017-09-15T08:26:07.273Z,0.90
2017-09-15T08:28:34.824Z,0.93
2017-09-15T08:31:02.410Z,0.70
2017-09-15T08:33:30.705Z,0.73
2017-09-15T08:35:59.026Z,0.80
2017-09-15T08:38:26.569Z,0.80
2017-09-15T08:40:54.121Z,1.50
2017-09-15T08:43:21.661Z,0.83
2017-09-15T08:45:49.200Z,0.60
2017-09-15T08:48:17.517Z,0.77
2017-09-15T08:50:45.054Z,0.70
2017-09-15T08:53:13.385Z,0.83
2017-09-15T08:55:40.905Z,0.60
2017-09-15T08:58:08.473Z,0.60
2017-09-15T09:00:36.002Z,0.70
2017-09-15T09:03:04.331Z,0.70
2017-09-15T09:05:31.865Z,0.80
2017-09-15T09:07:59.385Z,0.80
2017-09-15T09:10:26.974Z,1.07
2017-09-15T09:12:54.504Z,1.00
2017-09-15T09:15:22.097Z,0.90
2017-09-15T09:17:49.626Z,0.70
2017-09-15T09:20:17.206Z,0.80
2017-09-15T09:22:45.509Z,0.83
2017-09-15T09:25:13.061Z,0.63
2017-09-15T09:27:40.609Z,1.10
2017-09-15T09:30:08.905Z,0.80
2017-09-15T09:32:36.461Z,0.70
2017-09-15T09:35:04.029Z,0.73
2017-09-15T09:37:32.000Z,0.90
2017-09-15T09:39:59.534Z,0.70
2017-09-15T09:42:27.128Z,0.80
2017-09-15T09:44:54.682Z,0.80
2017-09-15T09:47:22.206Z,1.13
2017-09-15T09:49:50.517Z,0.63
2017-09-15T09:52:18.054Z,0.70
2017-09-15T09:54:45.586Z,0.80
2017-09-15T09:57:13.131Z,1.00
2017-09-15T09:59:40.667Z,0.90
2017-09-15T10:02:08.232Z,0.90
2017-09-15T10:04:35.791Z,0.77
2017-09-15T10:07:03.358Z,0.70
2017-09-15T10:09:30.887Z,0.90
2017-09-15T10:11:58.430Z,0.80
2017-09-15T10:14:25.958Z,1.00
2017-09-15T10:16:54.277Z,0.77
2017-09-15T10:19:21.808Z,0.90
2017-09-15T10:21:50.150Z,0.80
2017-09-15T10:24:17.677Z,0.83
2017-09-15T10:26:45.243Z,0.90
2017-09-15T10:29:12.779Z,0.73
2017-09-15T10:31:40.350Z,1.00
2017-09-15T10:34:07.897Z,0.70
2017-09-15T10:36:36.206Z,0.90
2017-09-15T10:39:03.756Z,0.90
2017-09-15T10:41:31.306Z,0.77
2017-09-15T10:43:58.875Z,0.70
2017-09-15T10:46:26.408Z,0.80
2017-09-15T10:48:54.708Z,0.70
2017-09-15T10:51:22.265Z,0.97
2017-09-15T10:53:49.836Z,0.77
2017-09-15T10:56:17.386Z,0.80
2017-09-15T10:58:50.542Z,0.73
2017-09-15T11:01:18.849Z,0.60
2017-09-15T11:03:46.408Z,0.70
2017-09-15T11:06:13.957Z,0.70
2017-09-15T11:08:42.270Z,0.73
2017-09-15T11:11:09.820Z,0.90
2017-09-15T11:13:37.378Z,0.77
2017-09-15T11:16:04.906Z,0.73
2017-09-15T11:18:33.198Z,0.60
2017-09-15T11:21:00.776Z,0.90
2017-09-15T11:23:28.321Z,0.97
2017-09-15T11:25:55.877Z,0.70
2017-09-15T11:28:23.406Z,0.80
2017-09-15T11:30:50.967Z,0.70
2017-09-15T11:33:19.265Z,0.60
2017-09-15T11:35:47.582Z,0.70
2017-09-15T11:38:15.145Z,0.60
2017-09-15T11:40:42.683Z,0.57
2017-09-15T11:43:10.250Z,0.60
2017-09-15T11:45:37.774Z,0.53
2017-09-15T11:48:06.754Z,0.80
2017-09-15T11:50:34.290Z,0.60
2017-09-15T11:53:01.856Z,1.17
2017-09-15T11:55:29.414Z,0.60
2017-09-15T11:57:56.952Z,0.70
2017-09-15T12:00:24.502Z,0.60
2017-09-15T12:02:52.134Z,0.50
2017-09-15T12:05:19.692Z,0.63
2017-09-15T12:07:47.245Z,0.60
2017-09-15T12:10:14.838Z,0.97
2017-09-15T12:12:42.373Z,0.57
2017-09-15T12:15:09.927Z,0.50
2017-09-15T12:17:37.529Z,0.70
2017-09-15T12:20:05.076Z,0.60
2017-09-15T12:22:32.628Z,0.80
2017-09-15T12:25:00.162Z,0.80
2017-09-15T12:27:28.489Z,0.80
2017-09-15T12:29:56.025Z,0.63
2017-09-15T12:32:24.359Z,0.70
2017-09-15T12:34:52.008Z,0.97
2017-09-15T12:37:19.566Z,0.70
2017-09-15T12:39:47.370Z,0.70
2017-09-15T12:42:14.960Z,1.20
2017-09-15T12:44:43.257Z,0.80
2017-09-15T12:47:10.808Z,0.60
2017-09-15T12:49:38.345Z,0.90
2017-09-15T12:52:06.652Z,0.63
2017-09-15T12:54:34.213Z,0.60
2017-09-15T12:57:01.750Z,0.70
2017-09-15T12:59:30.066Z,0.70
2017-09-15T13:01:57.624Z,0.53
2017-09-15T13:04:25.194Z,0.70
2017-09-15T13:06:52.727Z,1.97
2017-09-15T13:09:20.277Z,1.07
2017-09-15T13:11:47.809Z,0.53
2017-09-15T13:14:15.353Z,0.70
2017-09-15T13:16:42.895Z,0.70
2017-09-15T13:19:11.209Z,0.80
2017-09-15T13:21:38.763Z,0.60
2017-09-15T13:24:06.324Z,0.60
2017-09-15T13:26:33.849Z,0.80
2017-09-15T13:29:02.170Z,0.60
2017-09-15T13:31:29.740Z,0.70
2017-09-15T13:33:57.294Z,0.70
2017-09-15T13:36:24.857Z,0.60
2017-09-15T13:38:52.402Z,0.70
2017-09-15T13:41:19.977Z,0.70
2017-09-15T13:43:47.534Z,0.70
2017-09-15T13:46:15.080Z,0.70
2017-09-15T13:48:42.637Z,0.80
2017-09-15T13:51:10.176Z,0.70
2017-09-15T13:53:37.735Z,0.80
2017-09-15T13:56:05.292Z,0.70
2017-09-15T13:58:32.856Z,1.20
2017-09-15T14:01:00.396Z,0.60
2017-09-15T14:03:27.935Z,0.60
2017-09-15T14:05:56.248Z,6.83
2017-09-15T14:08:23.777Z,0.70
2017-09-15T14:10:52.191Z,0.60
2017-09-15T14:13:19.730Z,0.70
2017-09-15T14:15:47.297Z,0.60
2017-09-15T14:18:14.825Z,0.80
2017-09-15T14:20:43.268Z,0.60
2017-09-15T14:23:10.802Z,0.70
2017-09-15T14:25:38.357Z,0.80
2017-09-15T14:28:05.914Z,0.60
2017-09-15T14:30:33.444Z,0.90
2017-09-15T14:33:01.832Z,0.80
2017-09-15T14:35:29.438Z,0.70
2017-09-15T14:37:56.970Z,0.80
2017-09-15T14:40:24.533Z,0.90
2017-09-15T14:42:52.110Z,0.70
2017-09-15T14:45:19.679Z,0.90
2017-09-15T14:47:47.408Z,0.60
2017-09-15T14:50:14.953Z,0.80
2017-09-15T14:52:43.259Z,0.90
2017-09-15T14:55:10.815Z,0.77
2017-09-15T14:57:38.349Z,1.13
2017-09-15T15:00:06.689Z,0.80
2017-09-15T15:02:35.744Z,0.80
2017-09-15T15:05:03.304Z,0.90
2017-09-15T15:07:30.872Z,0.88
2017-09-15T15:09:58.446Z,0.90
2017-09-15T15:12:25.985Z,0.70
2017-09-15T15:14:53.561Z,0.60
2017-09-15T15:17:21.117Z,0.70
2017-09-15T15:19:48.689Z,0.90
2017-09-15T15:22:16.265Z,0.80
2017-09-15T15:24:43.799Z,0.60
2017-09-15T15:27:11.337Z,1.20
2017-09-15T15:29:38.914Z,0.80
2017-09-15T15:32:06.470Z,0.62
2017-09-15T15:34:34.034Z,0.88
2017-09-15T15:37:01.587Z,0.75
2017-09-15T15:39:29.141Z,0.70
2017-09-15T15:41:56.678Z,0.80
2017-09-15T15:44:24.998Z,0.77
2017-09-15T15:46:52.549Z,0.57
2017-09-15T15:49:20.089Z,0.73
2017-09-15T15:51:47.677Z,0.77
2017-09-15T15:54:15.217Z,0.90
2017-09-15T15:56:42.781Z,0.90
2017-09-15T15:59:10.312Z,1.10
2017-09-15T16:01:38.640Z,1.00
2017-09-15T16:04:06.178Z,0.97
2017-09-15T16:06:33.704Z,0.90
2017-09-15T16:09:02.033Z,1.03
2017-09-15T16:11:29.589Z,0.90
2017-09-15T16:13:57.258Z,1.60
2017-09-15T16:16:24.824Z,0.90
2017-09-15T16:18:52.370Z,1.10
2017-09-15T16:21:19.925Z,1.23
2017-09-15T16:23:47.449Z,1.63
2017-09-15T16:26:15.769Z,1.00
2017-09-15T16:28:43.309Z,0.90
2017-09-15T16:31:10.865Z,1.27
2017-09-15T16:33:38.416Z,1.20
2017-09-15T16:36:05.969Z,0.80
2017-09-15T16:38:39.993Z,0.80
2017-09-15T16:41:13.325Z,1.00
2017-09-15T16:43:46.698Z,0.80
2017-09-15T16:46:19.878Z,0.73
2017-09-15T16:48:53.083Z,0.70
2017-09-15T16:51:20.633Z,0.75
2017-09-15T16:53:48.190Z,7.90
2017-09-15T16:56:15.730Z,6.70
2017-09-15T16:58:43.281Z,12.47
2017-09-15T17:01:11.624Z,8.43
2017-09-15T17:03:39.174Z,10.57
2017-09-15T17:06:06.754Z,13.25
2017-09-15T17:08:34.315Z,11.75
2017-09-15T17:11:01.874Z,8.73
2017-09-15T17:13:30.819Z,7.18
2017-09-15T17:15:58.357Z,5.87
2017-09-15T17:18:27.441Z,5.87
2017-09-15T17:20:55.750Z,2.90
2017-09-15T17:23:23.318Z,1.12
2017-09-15T17:25:50.845Z,1.02
2017-09-15T17:28:19.177Z,1.75
2017-09-15T17:30:46.728Z,1.00
2017-09-15T17:33:14.265Z,1.20
2017-09-15T17:35:41.838Z,1.10
2017-09-15T17:38:09.369Z,1.00
2017-09-15T17:40:37.733Z,1.30
2017-09-15T17:43:05.266Z,1.85
2017-09-15T17:45:32.852Z,9.50
2017-09-15T17:48:01.166Z,10.77
2017-09-15T17:50:28.701Z,7.57
2017-09-15T17:52:57.027Z,3.10
2017-09-15T17:55:24.585Z,2.80
2017-09-15T17:57:52.129Z,2.67
2017-09-15T18:00:19.696Z,2.50
2017-09-15T18:02:47.360Z,2.30
2017-09-15T18:05:14.901Z,2.40
2017-09-15T18:07:42.483Z,2.12
2017-09-15T18:10:10.040Z,1.70
2017-09-15T18:12:37.578Z,2.60
2017-09-15T18:15:05.137Z,1.50
2017-09-15T18:17:32.689Z,2.40
2017-09-15T18:20:00.257Z,1.70
2017-09-15T18:22:27.842Z,1.58
2017-09-15T18:24:55.393Z,1.73
2017-09-15T18:27:22.930Z,1.42
2017-09-15T18:29:50.501Z,1.30
2017-09-15T18:32:18.054Z,1.00
2017-09-15T18:34:45.617Z,1.75
2017-09-15T18:37:13.177Z,3.45
2017-09-15T18:39:40.730Z,2.33
2017-09-15T18:42:08.278Z,3.15
2017-09-15T18:44:36.594Z,3.12
2017-09-15T18:47:04.164Z,2.42
2017-09-15T18:49:31.690Z,1.95
2017-09-15T18:51:59.256Z,1.80
2017-09-15T18:54:26.952Z,1.50
2017-09-15T18:56:54.489Z,1.50
2017-09-15T18:59:22.035Z,1.42
2017-09-15T19:01:49.572Z,1.75
2017-09-15T19:04:17.902Z,1.00
2017-09-15T19:06:45.440Z,1.00
2017-09-15T19:09:12.985Z,1.10
2017-09-15T19:11:40.533Z,1.10
2017-09-15T19:14:08.857Z,1.65
2017-09-15T19:16:36.417Z,1.37
2017-09-15T19:19:03.986Z,1.50
2017-09-15T19:21:31.550Z,2.65
2017-09-15T19:23:59.078Z,2.40
2017-09-15T19:26:26.651Z,2.80
2017-09-15T19:28:54.414Z,1.70
2017-09-15T19:31:21.950Z,1.85
2017-09-15T19:33:49.526Z,3.97
2017-09-15T19:36:17.081Z,2.55
2017-09-15T19:38:44.642Z,1.75
2017-09-15T19:41:12.193Z,3.65
2017-09-15T19:43:39.740Z,2.78
2017-09-15T19:46:08.053Z,2.40
2017-09-15T19:48:35.626Z,1.80
2017-09-15T19:51:03.153Z,2.45
2017-09-15T19:53:30.732Z,1.60
2017-09-15T19:55:58.254Z,1.70
2017-09-15T19:58:26.566Z,2.37
2017-09-15T20:00:54.108Z,1.73
2017-09-15T20:03:21.633Z,1.70
2017-09-15T20:05:49.173Z,1.50
2017-09-15T20:08:16.702Z,1.52
2017-09-15T20:10:44.251Z,2.10
2017-09-15T20:13:11.801Z,1.67
2017-09-15T20:15:39.340Z,1.65
2017-09-15T20:18:07.676Z,1.40
2017-09-15T20:20:35.245Z,1.45
2017-09-15T20:23:02.800Z,1.70
2017-09-15T20:25:30.343Z,1.92
2017-09-15T20:27:57.874Z,2.25
2017-09-15T20:30:25.439Z,1.80
2017-09-15T20:32:53.005Z,1.62
2017-09-15T20:35:20.556Z,2.30
2017-09-15T20:37:48.093Z,1.80
2017-09-15T20:40:16.406Z,2.90
2017-09-15T20:42:43.926Z,3.47
2017-09-15T20:45:11.480Z,2.47
2017-09-15T20:47:39.777Z,1.92
2017-09-15T20:50:08.099Z,1.70
2017-09-15T20:52:35.674Z,2.03
2017-09-15T20:55:03.206Z,1.90
2017-09-15T20:57:30.746Z,1.85
2017-09-15T20:59:58.271Z,2.20
2017-09-15T21:02:25.822Z,2.58
2017-09-15T21:04:53.349Z,2.10
2017-09-15T21:07:20.918Z,1.92
2017-09-15T21:09:48.453Z,1.60
2017-09-15T21:12:16.027Z,2.40
2017-09-15T21:14:43.553Z,6.60
2017-09-15T21:17:11.853Z,5.68
2017-09-15T21:19:39.413Z,3.40
2017-09-15T21:22:06.952Z,3.42
2017-09-15T21:24:35.303Z,2.28
2017-09-15T21:27:02.837Z,2.40
2017-09-15T21:29:30.396Z,1.60
2017-09-15T21:31:57.913Z,1.70
2017-09-15T21:34:25.459Z,1.30
2017-09-15T21:36:53.767Z,1.98
2017-09-15T21:39:21.295Z,1.75
2017-09-15T21:41:49.603Z,1.55
2017-09-15T21:44:17.125Z,1.50
2017-09-15T21:46:45.450Z,1.95
2017-09-15T21:49:13.041Z,4.22
2017-09-15T21:51:40.588Z,2.25
2017-09-15T21:54:08.149Z,2.45
2017-09-15T21:56:35.708Z,2.40
2017-09-15T21:59:03.254Z,2.50
2017-09-15T22:01:30.778Z,2.10
2017-09-15T22:04:04.877Z,1.85
2017-09-15T22:06:33.166Z,2.05
2017-09-15T22:09:01.479Z,2.28
2017-09-15T22:11:29.001Z,2.33
2017-09-15T22:13:57.321Z,2.22
2017-09-15T22:16:24.846Z,2.65
2017-09-15T22:18:52.391Z,3.50
2017-09-15T22:21:20.704Z,4.43
2017-09-15T22:23:48.228Z,3.67
2017-09-15T22:26:16.545Z,3.20
2017-09-15T22:28:44.085Z,4.20
2017-09-15T22:31:11.605Z,2.90
2017-09-15T22:33:39.182Z,2.92
2017-09-15T22:36:07.499Z,3.10
2017-09-15T22:38:35.057Z,9.30
2017-09-15T22:41:02.606Z,8.68
2017-09-15T22:43:30.153Z,4.65
2017-09-15T22:45:57.710Z,3.35
2017-09-15T22:48:26.018Z,2.40
2017-09-15T22:50:53.567Z,2.92
2017-09-15T22:53:21.138Z,2.42
2017-09-15T22:55:48.681Z,2.83
2017-09-15T22:58:16.258Z,2.42
2017-09-15T23:00:43.789Z,2.37
2017-09-15T23:03:11.352Z,2.42
2017-09-15T23:05:38.893Z,2.85
2017-09-15T23:08:07.313Z,2.97
2017-09-15T23:10:34.878Z,2.60
2017-09-15T23:13:02.405Z,2.45
2017-09-15T23:15:30.728Z,2.95
2017-09-15T23:17:58.288Z,3.53
2017-09-15T23:20:25.838Z,3.20
2017-09-15T23:22:53.375Z,3.33
2017-09-15T23:25:20.939Z,2.45
2017-09-15T23:27:48.454Z,3.05
2017-09-15T23:30:16.003Z,4.78
2017-09-15T23:32:43.541Z,6.82
2017-09-15T23:35:11.078Z,6.10
2017-09-15T23:37:38.628Z,5.97
2017-09-15T23:40:06.174Z,6.85
2017-09-15T23:42:34.486Z,6.87
2017-09-15T23:45:02.009Z,5.68
2017-09-15T23:47:30.318Z,5.03
2017-09-15T23:49:57.878Z,4.25
2017-09-15T23:52:25.431Z,4.03
2017-09-15T23:54:52.957Z,3.58
2017-09-15T23:57:21.265Z,3.97
2017-09-15T23:59:48.797Z,4.00
